sensor_id;sensor_type;location;lat;lon;timestamp;P1;durP1;ratioP1;P2;durP2;ratioP2
51006;SDS011;37034;47.886;-3.904;2023-04-30T00:00:21;9.20;;;6.03;;
51006;SDS011;37034;47.886;-3.904;2023-04-30T00:02:46;12.77;;;6.40;;
51006;SDS011;37034;47.886;-3.904;2023-04-30T00:05:12;8.73;;;5.80;;
51006;SDS011;37034;47.886;-3.904;2023-04-30T00:07:38;8.47;;;6.03;;
51006;SDS011;37034;47.886;-3.904;2023-04-30T00:10:07;12.65;;;6.57;;
51006;SDS011;37034;47.886;-3.904;2023-04-30T00:12:36;10.57;;;6.60;;
51006;SDS011;37034;47.886;-3.904;2023-04-30T00:15:02;11.50;;;6.40;;
51006;SDS011;37034;47.886;-3.904;2023-04-30T00:17:28;9.45;;;5.85;;
51006;SDS011;37034;47.886;-3.904;2023-04-30T00:19:53;9.90;;;6.03;;
51006;SDS011;37034;47.886;-3.904;2023-04-30T00:22:19;10.27;;;5.60;;
51006;SDS011;37034;47.886;-3.904;2023-04-30T00:24:45;11.98;;;6.30;;
51006;SDS011;37034;47.886;-3.904;2023-04-30T00:27:11;10.23;;;6.07;;
51006;SDS011;37034;47.886;-3.904;2023-04-30T00:29:37;8.53;;;5.83;;
51006;SDS011;37034;47.886;-3.904;2023-04-30T00:32:02;8.37;;;5.87;;
51006;SDS011;37034;47.886;-3.904;2023-04-30T00:34:28;10.27;;;7.03;;
51006;SDS011;37034;47.886;-3.904;2023-04-30T00:36:54;10.23;;;6.50;;
51006;SDS011;37034;47.886;-3.904;2023-04-30T00:39:20;12.40;;;6.75;;
51006;SDS011;37034;47.886;-3.904;2023-04-30T00:41:45;10.63;;;6.10;;
51006;SDS011;37034;47.886;-3.904;2023-04-30T00:44:11;13.65;;;6.45;;
51006;SDS011;37034;47.886;-3.904;2023-04-30T00:46:37;8.37;;;5.80;;
51006;SDS011;37034;47.886;-3.904;2023-04-30T00:49:02;5.80;;;4.40;;
51006;SDS011;37034;47.886;-3.904;2023-04-30T00:51:30;9.68;;;6.10;;
51006;SDS011;37034;47.886;-3.904;2023-04-30T00:53:57;11.77;;;5.90;;
51006;SDS011;37034;47.886;-3.904;2023-04-30T00:56:28;8.77;;;5.30;;
51006;SDS011;37034;47.886;-3.904;2023-04-30T00:58:56;8.25;;;5.68;;
51006;SDS011;37034;47.886;-3.904;2023-04-30T01:01:23;7.32;;;5.30;;
51006;SDS011;37034;47.886;-3.904;2023-04-30T01:03:50;7.28;;;5.20;;
51006;SDS011;37034;47.886;-3.904;2023-04-30T01:06:16;9.85;;;5.25;;
51006;SDS011;37034;47.886;-3.904;2023-04-30T01:08:42;6.18;;;3.92;;
51006;SDS011;37034;47.886;-3.904;2023-04-30T01:13:44;7.50;;;4.97;;
51006;SDS011;37034;47.886;-3.904;2023-04-30T01:16:23;9.38;;;4.35;;
51006;SDS011;37034;47.886;-3.904;2023-04-30T01:18:53;8.38;;;4.30;;
51006;SDS011;37034;47.886;-3.904;2023-04-30T01:21:23;8.35;;;4.82;;
51006;SDS011;37034;47.886;-3.904;2023-04-30T01:26:58;5.28;;;3.40;;
51006;SDS011;37034;47.886;-3.904;2023-04-30T01:29:33;5.50;;;3.28;;
51006;SDS011;37034;47.886;-3.904;2023-04-30T01:32:00;4.97;;;2.60;;
51006;SDS011;37034;47.886;-3.904;2023-04-30T01:34:27;4.93;;;2.30;;
51006;SDS011;37034;47.886;-3.904;2023-04-30T01:40:02;6.03;;;2.22;;
51006;SDS011;37034;47.886;-3.904;2023-04-30T01:45:17;5.63;;;1.48;;
51006;SDS011;37034;47.886;-3.904;2023-04-30T01:50:44;6.57;;;1.50;;
51006;SDS011;37034;47.886;-3.904;2023-04-30T01:53:16;4.65;;;1.38;;
51006;SDS011;37034;47.886;-3.904;2023-04-30T01:55:56;4.07;;;1.38;;
51006;SDS011;37034;47.886;-3.904;2023-04-30T01:58:29;2.92;;;1.45;;
51006;SDS011;37034;47.886;-3.904;2023-04-30T02:00:56;5.40;;;1.30;;
51006;SDS011;37034;47.886;-3.904;2023-04-30T02:03:22;4.60;;;1.17;;
51006;SDS011;37034;47.886;-3.904;2023-04-30T02:05:48;3.70;;;0.93;;
51006;SDS011;37034;47.886;-3.904;2023-04-30T02:08:14;2.50;;;0.98;;
51006;SDS011;37034;47.886;-3.904;2023-04-30T02:10:40;2.63;;;0.90;;
51006;SDS011;37034;47.886;-3.904;2023-04-30T02:13:06;3.50;;;1.40;;
51006;SDS011;37034;47.886;-3.904;2023-04-30T02:15:31;2.63;;;1.00;;
51006;SDS011;37034;47.886;-3.904;2023-04-30T02:17:57;4.32;;;1.58;;
51006;SDS011;37034;47.886;-3.904;2023-04-30T02:20:23;2.55;;;1.00;;
51006;SDS011;37034;47.886;-3.904;2023-04-30T02:22:49;3.15;;;1.10;;
51006;SDS011;37034;47.886;-3.904;2023-04-30T02:25:15;2.75;;;1.00;;
51006;SDS011;37034;47.886;-3.904;2023-04-30T02:27:41;4.43;;;1.38;;
51006;SDS011;37034;47.886;-3.904;2023-04-30T02:30:07;2.70;;;0.90;;
51006;SDS011;37034;47.886;-3.904;2023-04-30T02:32:32;5.18;;;1.00;;
51006;SDS011;37034;47.886;-3.904;2023-04-30T02:34:58;5.70;;;1.20;;
51006;SDS011;37034;47.886;-3.904;2023-04-30T02:37:24;5.60;;;1.77;;
51006;SDS011;37034;47.886;-3.904;2023-04-30T02:39:50;4.10;;;1.03;;
51006;SDS011;37034;47.886;-3.904;2023-04-30T02:42:16;6.80;;;1.50;;
51006;SDS011;37034;47.886;-3.904;2023-04-30T02:44:41;5.65;;;1.55;;
51006;SDS011;37034;47.886;-3.904;2023-04-30T02:47:07;5.38;;;1.35;;
51006;SDS011;37034;47.886;-3.904;2023-04-30T02:49:33;2.60;;;0.97;;
51006;SDS011;37034;47.886;-3.904;2023-04-30T02:51:59;7.87;;;1.70;;
51006;SDS011;37034;47.886;-3.904;2023-04-30T02:54:24;5.50;;;1.60;;
51006;SDS011;37034;47.886;-3.904;2023-04-30T02:56:50;5.00;;;1.70;;
51006;SDS011;37034;47.886;-3.904;2023-04-30T02:59:16;6.03;;;1.92;;
51006;SDS011;37034;47.886;-3.904;2023-04-30T03:01:41;3.10;;;1.27;;
51006;SDS011;37034;47.886;-3.904;2023-04-30T03:04:07;4.50;;;1.63;;
51006;SDS011;37034;47.886;-3.904;2023-04-30T03:06:33;3.53;;;1.17;;
51006;SDS011;37034;47.886;-3.904;2023-04-30T03:08:58;2.67;;;1.33;;
51006;SDS011;37034;47.886;-3.904;2023-04-30T03:11:25;7.10;;;1.70;;
51006;SDS011;37034;47.886;-3.904;2023-04-30T03:13:50;7.53;;;1.58;;
51006;SDS011;37034;47.886;-3.904;2023-04-30T03:16:19;2.97;;;1.27;;
51006;SDS011;37034;47.886;-3.904;2023-04-30T03:18:46;3.88;;;1.25;;
51006;SDS011;37034;47.886;-3.904;2023-04-30T03:21:13;4.05;;;1.50;;
51006;SDS011;37034;47.886;-3.904;2023-04-30T03:23:39;6.38;;;1.35;;
51006;SDS011;37034;47.886;-3.904;2023-04-30T03:26:05;3.88;;;1.55;;
51006;SDS011;37034;47.886;-3.904;2023-04-30T03:28:30;3.67;;;1.43;;
51006;SDS011;37034;47.886;-3.904;2023-04-30T03:30:56;3.40;;;1.23;;
51006;SDS011;37034;47.886;-3.904;2023-04-30T03:33:23;3.67;;;1.30;;
51006;SDS011;37034;47.886;-3.904;2023-04-30T03:35:48;3.47;;;1.10;;
51006;SDS011;37034;47.886;-3.904;2023-04-30T03:38:15;3.75;;;1.40;;
51006;SDS011;37034;47.886;-3.904;2023-04-30T03:40:41;4.40;;;1.50;;
51006;SDS011;37034;47.886;-3.904;2023-04-30T03:43:06;3.87;;;1.30;;
51006;SDS011;37034;47.886;-3.904;2023-04-30T03:45:32;3.80;;;1.30;;
51006;SDS011;37034;47.886;-3.904;2023-04-30T03:47:58;3.55;;;1.63;;
51006;SDS011;37034;47.886;-3.904;2023-04-30T03:50:23;2.73;;;1.20;;
51006;SDS011;37034;47.886;-3.904;2023-04-30T03:52:50;2.75;;;1.15;;
51006;SDS011;37034;47.886;-3.904;2023-04-30T03:55:15;4.37;;;1.63;;
51006;SDS011;37034;47.886;-3.904;2023-04-30T03:57:41;6.30;;;1.65;;
51006;SDS011;37034;47.886;-3.904;2023-04-30T04:00:07;5.35;;;1.10;;
51006;SDS011;37034;47.886;-3.904;2023-04-30T04:02:40;5.50;;;1.88;;
51006;SDS011;37034;47.886;-3.904;2023-04-30T04:05:05;4.90;;;2.17;;
51006;SDS011;37034;47.886;-3.904;2023-04-30T04:07:32;3.25;;;1.35;;
51006;SDS011;37034;47.886;-3.904;2023-04-30T04:09:57;3.17;;;1.30;;
51006;SDS011;37034;47.886;-3.904;2023-04-30T04:12:23;3.93;;;1.17;;
51006;SDS011;37034;47.886;-3.904;2023-04-30T04:14:49;2.75;;;1.10;;
51006;SDS011;37034;47.886;-3.904;2023-04-30T04:17:14;3.60;;;1.43;;
51006;SDS011;37034;47.886;-3.904;2023-04-30T04:19:40;3.73;;;1.50;;
51006;SDS011;37034;47.886;-3.904;2023-04-30T04:22:06;4.00;;;1.60;;
51006;SDS011;37034;47.886;-3.904;2023-04-30T04:24:31;4.97;;;1.23;;
51006;SDS011;37034;47.886;-3.904;2023-04-30T04:26:57;4.72;;;1.33;;
51006;SDS011;37034;47.886;-3.904;2023-04-30T04:29:23;2.50;;;1.20;;
51006;SDS011;37034;47.886;-3.904;2023-04-30T04:31:49;4.03;;;2.08;;
51006;SDS011;37034;47.886;-3.904;2023-04-30T04:34:15;4.07;;;1.50;;
51006;SDS011;37034;47.886;-3.904;2023-04-30T04:36:41;3.33;;;1.38;;
51006;SDS011;37034;47.886;-3.904;2023-04-30T04:39:07;4.25;;;1.63;;
51006;SDS011;37034;47.886;-3.904;2023-04-30T04:41:33;3.90;;;1.38;;
51006;SDS011;37034;47.886;-3.904;2023-04-30T04:44:00;5.00;;;1.73;;
51006;SDS011;37034;47.886;-3.904;2023-04-30T04:46:31;3.22;;;1.63;;
51006;SDS011;37034;47.886;-3.904;2023-04-30T04:48:58;2.60;;;1.27;;
51006;SDS011;37034;47.886;-3.904;2023-04-30T04:51:24;2.87;;;1.20;;
51006;SDS011;37034;47.886;-3.904;2023-04-30T04:53:49;3.25;;;1.33;;
51006;SDS011;37034;47.886;-3.904;2023-04-30T04:56:15;2.23;;;1.30;;
51006;SDS011;37034;47.886;-3.904;2023-04-30T04:58:41;2.77;;;1.40;;
51006;SDS011;37034;47.886;-3.904;2023-04-30T05:01:08;3.92;;;1.15;;
51006;SDS011;37034;47.886;-3.904;2023-04-30T05:03:34;3.15;;;0.95;;
51006;SDS011;37034;47.886;-3.904;2023-04-30T05:08:26;2.65;;;1.27;;
51006;SDS011;37034;47.886;-3.904;2023-04-30T05:10:52;5.07;;;1.00;;
51006;SDS011;37034;47.886;-3.904;2023-04-30T05:13:18;5.37;;;1.00;;
51006;SDS011;37034;47.886;-3.904;2023-04-30T05:15:43;1.43;;;0.80;;
51006;SDS011;37034;47.886;-3.904;2023-04-30T05:18:09;3.43;;;1.07;;
51006;SDS011;37034;47.886;-3.904;2023-04-30T05:20:35;2.03;;;0.85;;
51006;SDS011;37034;47.886;-3.904;2023-04-30T05:23:00;1.77;;;0.80;;
51006;SDS011;37034;47.886;-3.904;2023-04-30T05:25:27;2.05;;;0.90;;
51006;SDS011;37034;47.886;-3.904;2023-04-30T05:30:20;1.40;;;0.70;;
51006;SDS011;37034;47.886;-3.904;2023-04-30T05:32:46;2.40;;;0.80;;
51006;SDS011;37034;47.886;-3.904;2023-04-30T05:35:15;2.22;;;0.90;;
51006;SDS011;37034;47.886;-3.904;2023-04-30T05:37:41;1.92;;;0.88;;
51006;SDS011;37034;47.886;-3.904;2023-04-30T05:40:07;1.90;;;0.90;;
51006;SDS011;37034;47.886;-3.904;2023-04-30T05:42:33;3.42;;;1.20;;
51006;SDS011;37034;47.886;-3.904;2023-04-30T05:44:58;3.10;;;0.97;;
51006;SDS011;37034;47.886;-3.904;2023-04-30T05:49:51;1.92;;;0.80;;
51006;SDS011;37034;47.886;-3.904;2023-04-30T05:52:16;3.27;;;1.30;;
51006;SDS011;37034;47.886;-3.904;2023-04-30T05:54:42;4.00;;;1.90;;
51006;SDS011;37034;47.886;-3.904;2023-04-30T05:57:08;4.53;;;1.60;;
51006;SDS011;37034;47.886;-3.904;2023-04-30T05:59:33;3.50;;;1.48;;
51006;SDS011;37034;47.886;-3.904;2023-04-30T06:01:59;2.45;;;1.17;;
51006;SDS011;37034;47.886;-3.904;2023-04-30T06:04:25;3.00;;;1.50;;
51006;SDS011;37034;47.886;-3.904;2023-04-30T06:06:50;3.87;;;1.83;;
51006;SDS011;37034;47.886;-3.904;2023-04-30T06:09:16;3.67;;;1.77;;
51006;SDS011;37034;47.886;-3.904;2023-04-30T06:11:41;4.77;;;1.90;;
51006;SDS011;37034;47.886;-3.904;2023-04-30T06:14:09;3.70;;;1.90;;
51006;SDS011;37034;47.886;-3.904;2023-04-30T06:16:35;3.63;;;2.00;;
51006;SDS011;37034;47.886;-3.904;2023-04-30T06:19:00;5.40;;;1.98;;
51006;SDS011;37034;47.886;-3.904;2023-04-30T06:21:26;3.97;;;1.97;;
51006;SDS011;37034;47.886;-3.904;2023-04-30T06:23:52;4.87;;;2.37;;
51006;SDS011;37034;47.886;-3.904;2023-04-30T06:26:18;3.75;;;2.30;;
51006;SDS011;37034;47.886;-3.904;2023-04-30T06:28:44;5.47;;;2.38;;
51006;SDS011;37034;47.886;-3.904;2023-04-30T06:31:10;6.63;;;2.58;;
51006;SDS011;37034;47.886;-3.904;2023-04-30T06:33:36;5.88;;;1.73;;
51006;SDS011;37034;47.886;-3.904;2023-04-30T06:36:02;3.93;;;1.90;;
51006;SDS011;37034;47.886;-3.904;2023-04-30T06:38:28;5.53;;;2.33;;
51006;SDS011;37034;47.886;-3.904;2023-04-30T06:40:53;4.27;;;2.03;;
51006;SDS011;37034;47.886;-3.904;2023-04-30T06:43:19;3.95;;;2.00;;
51006;SDS011;37034;47.886;-3.904;2023-04-30T06:45:45;5.70;;;2.67;;
51006;SDS011;37034;47.886;-3.904;2023-04-30T06:48:11;3.83;;;2.00;;
51006;SDS011;37034;47.886;-3.904;2023-04-30T06:50:36;5.60;;;2.75;;
51006;SDS011;37034;47.886;-3.904;2023-04-30T06:53:11;4.63;;;2.65;;
51006;SDS011;37034;47.886;-3.904;2023-04-30T06:55:37;6.10;;;2.80;;
51006;SDS011;37034;47.886;-3.904;2023-04-30T06:58:03;5.85;;;3.30;;
51006;SDS011;37034;47.886;-3.904;2023-04-30T07:00:32;5.15;;;2.60;;
51006;SDS011;37034;47.886;-3.904;2023-04-30T07:03:01;5.90;;;2.40;;
51006;SDS011;37034;47.886;-3.904;2023-04-30T07:05:28;5.80;;;2.90;;
51006;SDS011;37034;47.886;-3.904;2023-04-30T07:10:21;6.13;;;2.70;;
51006;SDS011;37034;47.886;-3.904;2023-04-30T07:12:47;6.45;;;3.15;;
51006;SDS011;37034;47.886;-3.904;2023-04-30T07:15:12;5.32;;;2.58;;
51006;SDS011;37034;47.886;-3.904;2023-04-30T07:17:38;7.97;;;3.17;;
51006;SDS011;37034;47.886;-3.904;2023-04-30T07:20:05;5.18;;;3.03;;
51006;SDS011;37034;47.886;-3.904;2023-04-30T07:22:32;5.20;;;2.95;;
51006;SDS011;37034;47.886;-3.904;2023-04-30T07:24:58;5.73;;;3.50;;
51006;SDS011;37034;47.886;-3.904;2023-04-30T07:27:25;10.15;;;3.63;;
51006;SDS011;37034;47.886;-3.904;2023-04-30T07:29:51;7.65;;;3.70;;
51006;SDS011;37034;47.886;-3.904;2023-04-30T07:32:17;6.13;;;3.30;;
51006;SDS011;37034;47.886;-3.904;2023-04-30T07:34:42;6.93;;;3.57;;
51006;SDS011;37034;47.886;-3.904;2023-04-30T07:37:08;6.57;;;3.30;;
51006;SDS011;37034;47.886;-3.904;2023-04-30T07:39:34;7.85;;;3.55;;
51006;SDS011;37034;47.886;-3.904;2023-04-30T07:42:02;8.15;;;3.75;;
51006;SDS011;37034;47.886;-3.904;2023-04-30T07:44:29;6.97;;;3.75;;
51006;SDS011;37034;47.886;-3.904;2023-04-30T07:46:55;7.80;;;3.50;;
51006;SDS011;37034;47.886;-3.904;2023-04-30T07:49:21;6.17;;;3.33;;
51006;SDS011;37034;47.886;-3.904;2023-04-30T07:51:46;6.60;;;2.95;;
51006;SDS011;37034;47.886;-3.904;2023-04-30T07:54:12;9.68;;;2.65;;
51006;SDS011;37034;47.886;-3.904;2023-04-30T07:56:38;6.65;;;2.92;;
51006;SDS011;37034;47.886;-3.904;2023-04-30T07:59:04;5.20;;;2.10;;
51006;SDS011;37034;47.886;-3.904;2023-04-30T08:01:30;5.68;;;2.30;;
51006;SDS011;37034;47.886;-3.904;2023-04-30T08:03:56;7.53;;;3.08;;
51006;SDS011;37034;47.886;-3.904;2023-04-30T08:06:21;6.50;;;2.43;;
51006;SDS011;37034;47.886;-3.904;2023-04-30T08:08:47;3.70;;;2.40;;
51006;SDS011;37034;47.886;-3.904;2023-04-30T08:11:13;5.37;;;2.10;;
51006;SDS011;37034;47.886;-3.904;2023-04-30T08:16:06;4.25;;;2.47;;
51006;SDS011;37034;47.886;-3.904;2023-04-30T08:18:32;4.18;;;2.63;;
51006;SDS011;37034;47.886;-3.904;2023-04-30T08:20:58;4.53;;;2.35;;
51006;SDS011;37034;47.886;-3.904;2023-04-30T08:23:25;4.38;;;2.17;;
51006;SDS011;37034;47.886;-3.904;2023-04-30T08:25:51;2.90;;;1.70;;
51006;SDS011;37034;47.886;-3.904;2023-04-30T08:28:17;5.93;;;2.17;;
51006;SDS011;37034;47.886;-3.904;2023-04-30T08:30:42;4.25;;;1.83;;
51006;SDS011;37034;47.886;-3.904;2023-04-30T08:33:08;4.05;;;2.20;;
51006;SDS011;37034;47.886;-3.904;2023-04-30T08:35:34;4.25;;;2.60;;
51006;SDS011;37034;47.886;-3.904;2023-04-30T08:38:00;5.18;;;2.58;;
51006;SDS011;37034;47.886;-3.904;2023-04-30T08:40:26;4.17;;;2.67;;
51006;SDS011;37034;47.886;-3.904;2023-04-30T08:42:59;5.15;;;2.78;;
51006;SDS011;37034;47.886;-3.904;2023-04-30T08:45:33;4.32;;;2.90;;
51006;SDS011;37034;47.886;-3.904;2023-04-30T08:48:01;5.95;;;3.50;;
51006;SDS011;37034;47.886;-3.904;2023-04-30T08:50:28;5.85;;;3.78;;
51006;SDS011;37034;47.886;-3.904;2023-04-30T08:52:55;4.00;;;2.70;;
51006;SDS011;37034;47.886;-3.904;2023-04-30T08:55:23;6.05;;;2.65;;
51006;SDS011;37034;47.886;-3.904;2023-04-30T08:57:50;4.63;;;2.60;;
51006;SDS011;37034;47.886;-3.904;2023-04-30T09:00:16;5.47;;;2.90;;
51006;SDS011;37034;47.886;-3.904;2023-04-30T09:02:42;4.90;;;1.98;;
51006;SDS011;37034;47.886;-3.904;2023-04-30T09:07:36;3.38;;;2.00;;
51006;SDS011;37034;47.886;-3.904;2023-04-30T09:10:13;3.30;;;1.55;;
51006;SDS011;37034;47.886;-3.904;2023-04-30T09:12:43;2.75;;;1.63;;
51006;SDS011;37034;47.886;-3.904;2023-04-30T09:17:36;2.17;;;1.02;;
51006;SDS011;37034;47.886;-3.904;2023-04-30T09:20:09;3.13;;;0.90;;
51006;SDS011;37034;47.886;-3.904;2023-04-30T09:22:36;2.30;;;1.20;;
51006;SDS011;37034;47.886;-3.904;2023-04-30T09:25:03;4.55;;;1.52;;
51006;SDS011;37034;47.886;-3.904;2023-04-30T09:27:30;2.17;;;0.90;;
51006;SDS011;37034;47.886;-3.904;2023-04-30T09:29:55;2.30;;;1.20;;
51006;SDS011;37034;47.886;-3.904;2023-04-30T09:32:21;2.30;;;1.35;;
51006;SDS011;37034;47.886;-3.904;2023-04-30T09:34:47;2.88;;;1.17;;
51006;SDS011;37034;47.886;-3.904;2023-04-30T09:37:12;4.68;;;1.67;;
51006;SDS011;37034;47.886;-3.904;2023-04-30T09:39:46;3.33;;;1.60;;
51006;SDS011;37034;47.886;-3.904;2023-04-30T09:42:13;2.45;;;1.30;;
51006;SDS011;37034;47.886;-3.904;2023-04-30T09:44:39;4.38;;;1.80;;
51006;SDS011;37034;47.886;-3.904;2023-04-30T09:52:16;2.20;;;1.00;;
51006;SDS011;37034;47.886;-3.904;2023-04-30T09:54:42;2.75;;;1.33;;
51006;SDS011;37034;47.886;-3.904;2023-04-30T09:57:11;2.95;;;1.50;;
51006;SDS011;37034;47.886;-3.904;2023-04-30T09:59:40;2.30;;;1.30;;
51006;SDS011;37034;47.886;-3.904;2023-04-30T10:02:08;2.78;;;1.42;;
51006;SDS011;37034;47.886;-3.904;2023-04-30T10:04:35;3.38;;;1.45;;
51006;SDS011;37034;47.886;-3.904;2023-04-30T10:07:04;3.13;;;1.50;;
51006;SDS011;37034;47.886;-3.904;2023-04-30T10:09:38;2.13;;;1.15;;
51006;SDS011;37034;47.886;-3.904;2023-04-30T10:12:13;3.67;;;1.33;;
51006;SDS011;37034;47.886;-3.904;2023-04-30T10:14:44;2.33;;;1.30;;
51006;SDS011;37034;47.886;-3.904;2023-04-30T10:17:17;2.35;;;1.13;;
51006;SDS011;37034;47.886;-3.904;2023-04-30T10:19:47;2.35;;;1.17;;
51006;SDS011;37034;47.886;-3.904;2023-04-30T10:22:16;2.33;;;1.00;;
51006;SDS011;37034;47.886;-3.904;2023-04-30T10:24:42;3.30;;;1.50;;
51006;SDS011;37034;47.886;-3.904;2023-04-30T10:29:34;2.72;;;1.15;;
51006;SDS011;37034;47.886;-3.904;2023-04-30T10:32:00;3.67;;;1.50;;
51006;SDS011;37034;47.886;-3.904;2023-04-30T10:34:50;2.90;;;1.13;;
51006;SDS011;37034;47.886;-3.904;2023-04-30T10:37:39;4.03;;;1.23;;
51006;SDS011;37034;47.886;-3.904;2023-04-30T10:40:11;2.78;;;1.02;;
51006;SDS011;37034;47.886;-3.904;2023-04-30T10:42:43;5.25;;;1.98;;
51006;SDS011;37034;47.886;-3.904;2023-04-30T10:45:14;3.10;;;0.98;;
51006;SDS011;37034;47.886;-3.904;2023-04-30T10:47:43;2.00;;;1.17;;
51006;SDS011;37034;47.886;-3.904;2023-04-30T10:50:10;4.35;;;1.40;;
51006;SDS011;37034;47.886;-3.904;2023-04-30T10:52:37;3.03;;;1.02;;
51006;SDS011;37034;47.886;-3.904;2023-04-30T10:55:03;2.25;;;0.70;;
51006;SDS011;37034;47.886;-3.904;2023-04-30T10:57:30;3.50;;;1.00;;
51006;SDS011;37034;47.886;-3.904;2023-04-30T11:03:16;3.30;;;1.42;;
51006;SDS011;37034;47.886;-3.904;2023-04-30T11:05:36;3.22;;;0.90;;
51006;SDS011;37034;47.886;-3.904;2023-04-30T11:08:03;3.35;;;1.20;;
51006;SDS011;37034;47.886;-3.904;2023-04-30T11:10:33;3.95;;;1.10;;
51006;SDS011;37034;47.886;-3.904;2023-04-30T11:13:06;4.05;;;1.25;;
51006;SDS011;37034;47.886;-3.904;2023-04-30T11:15:38;2.58;;;0.70;;
51006;SDS011;37034;47.886;-3.904;2023-04-30T11:18:06;3.42;;;0.90;;
51006;SDS011;37034;47.886;-3.904;2023-04-30T11:20:32;3.75;;;0.80;;
51006;SDS011;37034;47.886;-3.904;2023-04-30T11:23:13;3.10;;;1.15;;
51006;SDS011;37034;47.886;-3.904;2023-04-30T11:25:40;2.50;;;0.93;;
51006;SDS011;37034;47.886;-3.904;2023-04-30T11:28:14;3.50;;;1.30;;
51006;SDS011;37034;47.886;-3.904;2023-04-30T11:30:55;4.30;;;0.98;;
51006;SDS011;37034;47.886;-3.904;2023-04-30T11:33:27;3.22;;;1.30;;
51006;SDS011;37034;47.886;-3.904;2023-04-30T11:35:54;3.60;;;1.20;;
51006;SDS011;37034;47.886;-3.904;2023-04-30T11:38:22;3.88;;;1.42;;
51006;SDS011;37034;47.886;-3.904;2023-04-30T11:40:50;3.60;;;1.60;;
51006;SDS011;37034;47.886;-3.904;2023-04-30T11:43:19;2.83;;;1.27;;
51006;SDS011;37034;47.886;-3.904;2023-04-30T11:48:38;2.72;;;1.20;;
51006;SDS011;37034;47.886;-3.904;2023-04-30T11:51:14;3.15;;;1.35;;
51006;SDS011;37034;47.886;-3.904;2023-04-30T11:53:40;5.07;;;1.17;;
51006;SDS011;37034;47.886;-3.904;2023-04-30T11:56:06;3.25;;;1.48;;
51006;SDS011;37034;47.886;-3.904;2023-04-30T11:58:32;3.22;;;1.23;;
51006;SDS011;37034;47.886;-3.904;2023-04-30T12:01:03;2.85;;;1.13;;
51006;SDS011;37034;47.886;-3.904;2023-04-30T12:03:30;3.15;;;1.30;;
51006;SDS011;37034;47.886;-3.904;2023-04-30T12:08:22;3.00;;;1.00;;
51006;SDS011;37034;47.886;-3.904;2023-04-30T12:10:48;3.15;;;1.20;;
51006;SDS011;37034;47.886;-3.904;2023-04-30T12:13:14;1.83;;;0.85;;
51006;SDS011;37034;47.886;-3.904;2023-04-30T12:15:40;4.43;;;0.93;;
51006;SDS011;37034;47.886;-3.904;2023-04-30T12:18:12;4.25;;;0.90;;
51006;SDS011;37034;47.886;-3.904;2023-04-30T12:20:39;2.85;;;0.80;;
51006;SDS011;37034;47.886;-3.904;2023-04-30T12:23:06;2.38;;;0.80;;
51006;SDS011;37034;47.886;-3.904;2023-04-30T12:25:38;1.77;;;0.75;;
51006;SDS011;37034;47.886;-3.904;2023-04-30T12:28:06;2.03;;;1.10;;
51006;SDS011;37034;47.886;-3.904;2023-04-30T12:30:32;3.38;;;0.93;;
51006;SDS011;37034;47.886;-3.904;2023-04-30T12:32:58;3.22;;;1.02;;
51006;SDS011;37034;47.886;-3.904;2023-04-30T12:35:26;3.55;;;0.90;;
51006;SDS011;37034;47.886;-3.904;2023-04-30T12:37:59;3.75;;;1.20;;
51006;SDS011;37034;47.886;-3.904;2023-04-30T12:40:27;1.77;;;1.00;;
51006;SDS011;37034;47.886;-3.904;2023-04-30T12:43:03;2.28;;;1.20;;
51006;SDS011;37034;47.886;-3.904;2023-04-30T12:45:49;3.88;;;1.30;;
51006;SDS011;37034;47.886;-3.904;2023-04-30T12:48:16;2.65;;;1.20;;
51006;SDS011;37034;47.886;-3.904;2023-04-30T12:50:57;2.55;;;1.20;;
51006;SDS011;37034;47.886;-3.904;2023-04-30T12:53:25;2.60;;;1.30;;
51006;SDS011;37034;47.886;-3.904;2023-04-30T12:58:42;2.25;;;0.90;;
51006;SDS011;37034;47.886;-3.904;2023-04-30T13:01:20;3.65;;;0.90;;
51006;SDS011;37034;47.886;-3.904;2023-04-30T13:03:48;3.80;;;1.00;;
51006;SDS011;37034;47.886;-3.904;2023-04-30T13:06:14;2.58;;;0.80;;
51006;SDS011;37034;47.886;-3.904;2023-04-30T13:08:40;2.20;;;0.70;;
51006;SDS011;37034;47.886;-3.904;2023-04-30T13:11:06;5.53;;;1.17;;
51006;SDS011;37034;47.886;-3.904;2023-04-30T13:13:31;2.58;;;0.73;;
51006;SDS011;37034;47.886;-3.904;2023-04-30T13:15:57;3.25;;;1.02;;
51006;SDS011;37034;47.886;-3.904;2023-04-30T13:18:23;2.97;;;0.82;;
51006;SDS011;37034;47.886;-3.904;2023-04-30T13:20:49;2.33;;;1.02;;
51006;SDS011;37034;47.886;-3.904;2023-04-30T13:23:16;3.60;;;1.00;;
51006;SDS011;37034;47.886;-3.904;2023-04-30T13:25:42;2.08;;;0.80;;
51006;SDS011;37034;47.886;-3.904;2023-04-30T13:28:07;2.47;;;0.73;;
51006;SDS011;37034;47.886;-3.904;2023-04-30T13:30:33;2.38;;;0.60;;
51006;SDS011;37034;47.886;-3.904;2023-04-30T13:35:25;2.65;;;0.73;;
51006;SDS011;37034;47.886;-3.904;2023-04-30T13:37:51;2.72;;;0.70;;
51006;SDS011;37034;47.886;-3.904;2023-04-30T13:40:18;3.17;;;0.68;;
51006;SDS011;37034;47.886;-3.904;2023-04-30T13:42:44;4.25;;;0.70;;
51006;SDS011;37034;47.886;-3.904;2023-04-30T13:45:11;2.67;;;0.80;;
51006;SDS011;37034;47.886;-3.904;2023-04-30T13:47:37;2.10;;;0.90;;
51006;SDS011;37034;47.886;-3.904;2023-04-30T13:50:03;2.50;;;0.70;;
51006;SDS011;37034;47.886;-3.904;2023-04-30T13:52:30;2.20;;;0.85;;
51006;SDS011;37034;47.886;-3.904;2023-04-30T13:54:56;2.20;;;0.82;;
51006;SDS011;37034;47.886;-3.904;2023-04-30T13:57:22;3.47;;;0.90;;
51006;SDS011;37034;47.886;-3.904;2023-04-30T13:59:48;2.75;;;0.70;;
51006;SDS011;37034;47.886;-3.904;2023-04-30T14:02:14;2.72;;;0.88;;
51006;SDS011;37034;47.886;-3.904;2023-04-30T14:04:40;2.55;;;1.00;;
51006;SDS011;37034;47.886;-3.904;2023-04-30T14:07:07;3.58;;;0.60;;
51006;SDS011;37034;47.886;-3.904;2023-04-30T14:09:32;3.75;;;0.68;;
51006;SDS011;37034;47.886;-3.904;2023-04-30T14:11:59;2.45;;;0.77;;
51006;SDS011;37034;47.886;-3.904;2023-04-30T14:16:51;2.10;;;0.70;;
51006;SDS011;37034;47.886;-3.904;2023-04-30T14:19:18;2.22;;;0.80;;
51006;SDS011;37034;47.886;-3.904;2023-04-30T14:21:44;3.22;;;0.63;;
51006;SDS011;37034;47.886;-3.904;2023-04-30T14:26:40;2.28;;;0.60;;
51006;SDS011;37034;47.886;-3.904;2023-04-30T14:29:07;4.20;;;0.82;;
51006;SDS011;37034;47.886;-3.904;2023-04-30T14:31:32;5.72;;;1.17;;
51006;SDS011;37034;47.886;-3.904;2023-04-30T14:33:58;4.82;;;0.95;;
51006;SDS011;37034;47.886;-3.904;2023-04-30T14:36:24;3.10;;;0.80;;
51006;SDS011;37034;47.886;-3.904;2023-04-30T14:38:51;3.35;;;0.98;;
51006;SDS011;37034;47.886;-3.904;2023-04-30T14:41:17;2.72;;;0.93;;
51006;SDS011;37034;47.886;-3.904;2023-04-30T14:43:43;3.40;;;0.77;;
51006;SDS011;37034;47.886;-3.904;2023-04-30T14:46:08;3.08;;;0.75;;
51006;SDS011;37034;47.886;-3.904;2023-04-30T14:48:34;2.92;;;0.90;;
51006;SDS011;37034;47.886;-3.904;2023-04-30T14:51:00;3.10;;;0.82;;
51006;SDS011;37034;47.886;-3.904;2023-04-30T14:53:26;5.95;;;1.00;;
51006;SDS011;37034;47.886;-3.904;2023-04-30T14:55:51;2.97;;;1.05;;
51006;SDS011;37034;47.886;-3.904;2023-04-30T14:58:17;3.08;;;0.85;;
51006;SDS011;37034;47.886;-3.904;2023-04-30T15:00:44;3.42;;;0.88;;
51006;SDS011;37034;47.886;-3.904;2023-04-30T15:03:11;4.07;;;1.13;;
51006;SDS011;37034;47.886;-3.904;2023-04-30T15:05:36;7.22;;;0.88;;
51006;SDS011;37034;47.886;-3.904;2023-04-30T15:08:02;3.92;;;0.90;;
51006;SDS011;37034;47.886;-3.904;2023-04-30T15:10:28;3.65;;;0.85;;
51006;SDS011;37034;47.886;-3.904;2023-04-30T15:12:53;3.88;;;0.90;;
51006;SDS011;37034;47.886;-3.904;2023-04-30T15:15:19;2.42;;;0.75;;
51006;SDS011;37034;47.886;-3.904;2023-04-30T15:17:49;3.30;;;0.90;;
51006;SDS011;37034;47.886;-3.904;2023-04-30T15:20:14;3.17;;;0.90;;
51006;SDS011;37034;47.886;-3.904;2023-04-30T15:22:40;2.83;;;0.80;;
51006;SDS011;37034;47.886;-3.904;2023-04-30T15:25:06;2.47;;;0.82;;
51006;SDS011;37034;47.886;-3.904;2023-04-30T15:27:32;5.93;;;1.10;;
51006;SDS011;37034;47.886;-3.904;2023-04-30T15:29:59;5.78;;;1.02;;